Time;durP1;ratioP1;P1;durP2;ratioP2;P2;SDS_P1;SDS_P2;PMS_P1;PMS_P2;Temp;Humidity;BMP_temperature;BMP_pressure;BME280_temperature;BME280_humidity;BME280_pressure;Samples;Min_cycle;Max_cycle;Signal;HPM_P1;HPM_P2
2023/01/24 00:00:43;;;;;;;17.40;10.70;;;;;;;6.75;55.65;103762.69;4961892;28;120355;-70
2023/01/24 00:03:13;;;;;;;16.40;9.73;;;;;;;6.73;55.63;103761.78;4958878;28;119749;-70
2023/01/24 00:05:43;;;;;;;19.10;11.05;;;;;;;6.76;55.90;103756.56;4948085;28;123431;-70
2023/01/24 00:08:15;;;;;;;19.08;11.05;;;;;;;6.80;56.17;103763.66;4978463;28;124806;-70
2023/01/24 00:10:42;;;;;;;18.27;10.80;;;;;;;6.81;55.79;103754.88;4980256;28;120919;-70
2023/01/24 00:13:13;;;;;;;18.98;10.38;;;;;;;6.83;55.88;103758.44;4959166;28;119712;-70
2023/01/24 00:15:40;;;;;;;18.52;10.85;;;;;;;6.84;55.84;103748.81;4959450;28;124224;-69
2023/01/24 00:18:07;;;;;;;18.20;10.02;;;;;;;6.86;56.04;103751.47;4977337;28;124244;-70
2023/01/24 00:20:35;;;;;;;15.75;9.45;;;;;;;6.87;55.87;103747.97;4958435;28;119322;-70
2023/01/24 00:23:02;;;;;;;16.58;9.70;;;;;;;6.87;55.96;103747.97;4963583;28;118738;-70
2023/01/24 00:25:29;;;;;;;15.55;9.25;;;;;;;6.88;55.80;103744.47;4960336;28;123434;-70
2023/01/24 00:27:56;;;;;;;16.10;10.00;;;;;;;6.88;55.81;103739.22;4963378;28;124041;-70
2023/01/24 00:30:25;;;;;;;15.85;9.77;;;;;;;6.88;55.60;103739.22;4964833;28;118129;-70
2023/01/24 00:32:52;;;;;;;14.48;8.80;;;;;;;6.87;55.79;103737.41;4983726;28;119273;-70
2023/01/24 00:35:19;;;;;;;16.02;9.93;;;;;;;6.87;55.72;103742.69;4982679;28;124032;-71
2023/01/24 00:37:46;;;;;;;17.33;9.48;;;;;;;6.88;55.23;103744.47;4965254;28;125393;-70
2023/01/24 00:40:13;;;;;;;17.27;9.32;;;;;;;6.88;55.65;103741.84;4963044;28;118988;-70
2023/01/24 00:42:41;;;;;;;16.42;10.07;;;;;;;6.88;55.42;103739.22;4959261;28;119244;-70
2023/01/24 00:45:08;;;;;;;17.27;9.75;;;;;;;6.88;55.60;103739.22;4950198;28;123159;-70
2023/01/24 00:47:35;;;;;;;16.70;9.93;;;;;;;6.90;55.53;103737.50;4967889;28;123878;-70
2023/01/24 00:50:02;;;;;;;15.98;10.68;;;;;;;6.88;55.54;103728.69;4968500;28;119318;-69
2023/01/24 00:52:29;;;;;;;17.40;10.63;;;;;;;6.85;55.55;103728.59;4968232;28;118692;-70
2023/01/24 00:54:57;;;;;;;17.27;9.75;;;;;;;6.81;55.30;103722.41;4970574;28;124106;-70
2023/01/24 00:57:24;;;;;;;17.85;10.27;;;;;;;6.79;55.40;103719.72;4978186;28;124181;-69
2023/01/24 00:59:51;;;;;;;17.60;10.77;;;;;;;6.76;55.47;103724.97;4972864;28;120561;-70
2023/01/24 01:02:18;;;;;;;17.30;10.38;;;;;;;6.76;55.58;103724.97;4969577;28;121000;-70
2023/01/24 01:04:46;;;;;;;19.48;11.18;;;;;;;6.74;55.71;103716.16;4966990;28;125062;-69
2023/01/24 01:07:13;;;;;;;18.55;10.70;;;;;;;6.73;55.67;103719.63;4969552;28;124244;-69
2023/01/24 01:09:41;;;;;;;17.80;10.23;;;;;;;6.71;56.03;103716.09;4967224;28;120625;-70
2023/01/24 01:12:08;;;;;;;19.65;10.10;;;;;;;6.72;55.53;103715.22;4982360;28;120033;-70
2023/01/24 01:14:35;;;;;;;18.73;10.93;;;;;;;6.71;55.91;103705.56;4957534;28;124231;-70
2023/01/24 01:17:03;;;;;;;17.83;10.82;;;;;;;6.71;55.80;103710.81;4982776;28;124584;-69
2023/01/24 01:19:30;;;;;;;18.88;11.38;;;;;;;6.70;55.96;103719.56;4963898;28;119069;-70
2023/01/24 01:21:57;;;;;;;19.60;11.02;;;;;;;6.69;55.70;103712.53;4947229;28;119646;-70
2023/01/24 01:24:25;;;;;;;18.55;10.70;;;;;;;6.68;55.65;103710.75;4979321;28;123259;-70
2023/01/24 01:26:52;;;;;;;18.42;10.65;;;;;;;6.67;56.15;103716.91;4962282;28;124242;-70
2023/01/24 01:29:19;;;;;;;20.58;12.05;;;;;;;6.68;55.70;103721.28;4948089;28;118293;-70
2023/01/24 01:31:46;;;;;;;19.77;11.55;;;;;;;6.69;56.09;103717.81;4967922;28;119415;-71
2023/01/24 01:34:13;;;;;;;20.25;11.77;;;;;;;6.67;55.91;103727.44;4966830;28;124823;-69
2023/01/24 01:36:40;;;;;;;19.30;11.40;;;;;;;6.65;55.74;103737.06;4967528;28;124615;-70
2023/01/24 01:39:07;;;;;;;18.23;11.13;;;;;;;6.61;55.61;103735.19;4963587;28;120587;-70
2023/01/24 01:41:34;;;;;;;18.20;10.75;;;;;;;6.60;56.00;103728.19;4966008;28;119624;-70
2023/01/24 01:44:38;;;;;;;18.77;10.20;;;;;;;6.57;55.99;103726.38;4965503;28;124628;-70
2023/01/24 01:47:32;;;;;;;18.35;10.43;;;;;;;6.56;55.85;103721.09;4980596;28;123504;-69
2023/01/24 01:50:05;;;;;;;18.50;10.68;;;;;;;6.58;56.03;103735.16;4964811;28;120643;-70
2023/01/24 01:52:37;;;;;;;19.42;10.40;;;;;;;6.59;56.19;103736.94;4963912;28;121297;-69
2023/01/24 01:55:19;;;;;;;20.73;11.57;;;;;;;6.59;55.85;103732.56;4962646;28;124075;-69
2023/01/24 01:57:48;;;;;;;19.63;11.07;;;;;;;6.60;55.80;103722.91;4964031;28;124335;-69
2023/01/24 02:00:19;;;;;;;19.17;11.23;;;;;;;6.59;55.88;103715.84;4963517;28;119149;-69
2023/01/24 02:05:56;;;;;;;18.80;10.55;;;;;;;6.58;55.88;103724.63;4969422;28;125510;-70
2023/01/24 02:08:24;;;;;;;20.85;11.23;;;;;;;6.58;56.20;103735.16;4974993;28;123899;-69
2023/01/24 02:13:43;;;;;;;20.88;9.90;;;;;;;6.58;56.18;103725.50;4964988;28;118842;-70
2023/01/24 02:16:12;;;;;;;18.65;9.30;;;;;;;6.58;56.24;103724.63;4966256;28;123399;-70
2023/01/24 02:18:42;;;;;;;19.08;9.45;;;;;;;6.58;56.12;103719.38;4982983;28;124364;-70
2023/01/24 02:21:15;;;;;;;17.88;9.90;;;;;;;6.57;56.44;103726.38;4947976;28;118844;-70
2023/01/24 02:23:42;;;;;;;18.20;9.48;;;;;;;6.56;55.94;103715.81;4965133;28;118995;-69
2023/01/24 02:26:16;;;;;;;20.10;10.63;;;;;;;6.53;56.16;103731.56;4966236;28;124461;-70
2023/01/24 02:29:05;;;;;;;19.63;10.57;;;;;;;6.48;55.67;103727.94;4965758;28;124595;-70
2023/01/24 02:31:55;;;;;;;20.00;10.63;;;;;;;6.43;56.17;103712.94;4965719;28;120721;-70
2023/01/24 02:34:23;;;;;;;20.85;11.27;;;;;;;6.39;56.29;103719.03;4971634;28;120364;-69
2023/01/24 02:37:00;;;;;;;20.88;11.05;;;;;;;6.34;56.17;103723.31;4978129;28;124799;-70
2023/01/24 02:39:43;;;;;;;18.05;10.00;;;;;;;6.32;56.05;103722.38;4975088;28;123728;-69
2023/01/24 02:42:14;;;;;;;22.85;10.57;;;;;;;6.33;56.52;103724.19;4980410;28;122648;-70
2023/01/24 02:45:09;;;;;;;22.20;10.53;;;;;;;6.34;56.48;103731.19;4981565;28;119559;-69
2023/01/24 02:47:43;;;;;;;20.15;10.57;;;;;;;6.37;56.38;103730.41;4974705;28;122738;-69
2023/01/24 02:50:11;;;;;;;19.27;9.88;;;;;;;6.38;56.53;103730.41;4980989;28;123005;-70
2023/01/24 02:55:24;;;;;;;16.60;9.30;;;;;;;6.44;56.65;103719.09;4978039;28;118734;-70
2023/01/24 02:58:06;;;;;;;20.70;10.55;;;;;;;6.42;56.45;103719.09;4979665;28;124691;-69
2023/01/24 03:00:40;;;;;;;19.10;10.55;;;;;;;6.41;56.19;103719.94;4963245;28;124527;-69
2023/01/24 03:03:09;;;;;;;18.95;10.05;;;;;;;6.38;56.20;103722.50;4964771;28;119062;-69
2023/01/24 03:05:46;;;;;;;18.58;9.48;;;;;;;6.38;56.70;103719.88;4978249;28;119219;-70
2023/01/24 03:08:16;;;;;;;20.15;10.25;;;;;;;6.39;56.29;103718.16;4972689;28;123344;-70
2023/01/24 03:10:46;;;;;;;18.35;9.30;;;;;;;6.39;56.28;103719.03;4950376;28;124768;-70
2023/01/24 03:35:28;;;;;;;17.23;9.70;;;;;;;6.13;56.37;103704.47;4963322;28;121358;-69
2023/01/24 03:40:42;;;;;;;17.38;8.68;;;;;;;6.10;56.91;103704.41;4960014;28;124054;-69
2023/01/24 03:43:10;;;;;;;19.80;9.93;;;;;;;6.11;56.93;103711.47;4947898;28;125418;-70
2023/01/24 03:45:39;;;;;;;16.63;9.73;;;;;;;6.11;56.80;103709.72;4941093;28;118640;-69
2023/01/24 03:48:15;;;;;;;15.30;8.20;;;;;;;6.12;56.85;103710.59;4966761;28;120688;-69
2023/01/24 03:53:34;;;;;;;18.30;9.10;;;;;;;6.08;56.58;103711.38;4961443;28;125712;-69
2023/01/24 03:56:02;;;;;;;18.40;8.80;;;;;;;6.07;56.87;103713.13;4961974;28;121022;-70
2023/01/24 03:58:36;;;;;;;15.77;8.67;;;;;;;6.07;56.54;103710.50;4961639;28;119612;-70
2023/01/24 04:01:07;;;;;;;16.50;9.07;;;;;;;6.06;56.94;103713.97;4961773;28;124795;-70
2023/01/24 04:04:00;;;;;;;17.10;9.52;;;;;;;6.06;56.86;103719.25;4961322;28;124826;-69
2023/01/24 04:06:28;;;;;;;16.25;9.73;;;;;;;6.03;56.64;103714.81;4958528;28;118843;-69
2023/01/24 04:08:55;;;;;;;17.52;8.93;;;;;;;6.03;56.96;103709.56;4951804;28;120784;-70
2023/01/24 04:11:25;;;;;;;16.27;9.40;;;;;;;6.02;57.15;103706.88;4968370;28;125622;-69
2023/01/24 04:14:11;;;;;;;17.30;9.13;;;;;;;6.03;57.11;103709.56;4950827;28;124317;-69
2023/01/24 04:16:51;;;;;;;16.48;9.52;;;;;;;6.04;56.72;103706.06;4980173;28;120367;-69
2023/01/24 04:19:24;;;;;;;17.90;9.65;;;;;;;6.04;56.75;103711.31;4967795;28;119085;-69
2023/01/24 04:21:51;;;;;;;18.10;10.15;;;;;;;6.03;57.09;103714.81;4951584;28;122434;-69
2023/01/24 04:24:19;;;;;;;15.32;8.65;;;;;;;6.01;56.73;103713.91;4980551;28;123680;-70
2023/01/24 04:26:46;;;;;;;17.15;9.35;;;;;;;5.99;57.19;103713.00;4965962;28;118831;-70
2023/01/24 04:29:18;;;;;;;16.95;8.73;;;;;;;5.99;56.97;103710.34;4967762;28;121257;-70
2023/01/24 04:31:48;;;;;;;17.00;8.73;;;;;;;6.01;56.96;103705.13;4981349;28;124593;-70
2023/01/24 04:34:38;;;;;;;16.63;8.88;;;;;;;6.03;57.03;103709.56;4958240;28;123886;-70
2023/01/24 04:37:12;;;;;;;17.33;8.85;;;;;;;6.07;57.00;103720.16;4966576;28;120116;-69
2023/01/24 04:39:41;;;;;;;16.20;8.75;;;;;;;6.06;56.93;103713.09;4964575;28;121030;-70
2023/01/24 04:42:15;;;;;;;16.20;8.88;;;;;;;6.06;57.07;103723.63;4965384;28;124057;-70
2023/01/24 04:44:43;;;;;;;18.67;9.85;;;;;;;6.06;57.05;103723.63;4965246;28;122978;-70
2023/01/24 04:47:11;;;;;;;16.33;9.57;;;;;;;6.04;56.89;103719.22;4960877;28;120050;-70
2023/01/24 04:49:40;;;;;;;17.60;8.93;;;;;;;6.07;57.24;103725.41;4984006;28;119578;-69
2023/01/24 04:52:12;;;;;;;15.88;8.50;;;;;;;6.09;57.34;103723.69;4982220;28;123571;-70
2023/01/24 04:55:06;;;;;;;18.70;9.57;;;;;;;6.10;57.14;103720.19;4965104;28;124450;-70
2023/01/24 04:57:34;;;;;;;18.33;9.68;;;;;;;6.08;57.39;103722.78;4980650;28;118544;-70
2023/01/24 05:00:01;;;;;;;17.27;8.85;;;;;;;6.08;57.26;103722.78;4964218;28;119512;-70
2023/01/24 05:02:29;;;;;;;19.10;9.98;;;;;;;6.08;57.24;103722.78;4945404;28;123090;-69
2023/01/24 05:04:56;;;;;;;19.05;10.40;;;;;;;6.07;57.16;103713.13;4965944;28;123144;-70
2023/01/24 05:07:23;;;;;;;18.45;9.77;;;;;;;6.07;57.40;103720.16;4966052;28;120929;-69
2023/01/24 05:09:58;;;;;;;18.33;8.87;;;;;;;6.04;57.12;103720.97;4966184;28;119308;-70
2023/01/24 05:12:26;;;;;;;17.35;8.98;;;;;;;6.01;57.07;103715.66;4966556;28;125640;-70
2023/01/24 05:14:56;;;;;;;18.10;9.07;;;;;;;6.01;56.99;103719.16;4983179;28;124897;-70
2023/01/24 05:17:24;;;;;;;17.75;9.23;;;;;;;6.03;57.41;103720.09;4962496;28;121226;-70
2023/01/24 05:19:54;;;;;;;17.85;9.20;;;;;;;6.02;57.46;103718.28;4970577;28;121244;-69
2023/01/24 05:22:22;;;;;;;18.33;9.38;;;;;;;6.03;57.10;103717.44;4970754;28;124102;-68
2023/01/24 05:24:50;;;;;;;18.77;10.32;;;;;;;6.03;57.11;103725.34;4971759;28;123492;-69
2023/01/24 05:27:17;;;;;;;19.60;9.93;;;;;;;6.03;57.35;103720.09;4947904;28;118816;-69
2023/01/24 05:29:53;;;;;;;20.25;10.70;;;;;;;6.02;57.08;103728.81;4963794;28;120038;-68
2023/01/24 05:32:20;;;;;;;19.23;10.93;;;;;;;6.00;57.38;103741.06;4966633;28;124120;-69
2023/01/24 05:34:47;;;;;;;20.10;10.68;;;;;;;6.00;57.26;103735.78;4966354;28;124482;-69
2023/01/24 05:37:15;;;;;;;19.20;10.75;;;;;;;5.97;57.08;103740.09;4980921;28;118722;-69
2023/01/24 05:39:43;;;;;;;17.98;10.27;;;;;;;5.96;57.25;103739.22;4963126;28;120266;-68
2023/01/24 05:42:11;;;;;;;19.23;9.73;;;;;;;5.96;57.16;103739.22;4982871;28;125927;-69
2023/01/24 05:44:43;;;;;;;19.80;10.52;;;;;;;5.95;57.11;103747.97;4959099;28;126002;-71
2023/01/24 05:47:10;;;;;;;18.85;10.05;;;;;;;5.93;57.11;103744.38;4966684;28;119171;-71
2023/01/24 05:49:39;;;;;;;18.40;10.40;;;;;;;5.90;57.33;103749.59;4962707;28;120164;-69
2023/01/24 05:52:07;;;;;;;19.13;9.57;;;;;;;5.86;57.33;103750.38;4946878;28;126134;-69
2023/01/24 05:54:44;;;;;;;16.90;9.43;;;;;;;5.86;57.37;103747.75;4962955;28;123277;-69
2023/01/24 05:57:24;;;;;;;18.77;9.77;;;;;;;5.86;57.23;103750.38;4964831;28;120670;-69
2023/01/24 06:00:11;;;;;;;20.30;10.98;;;;;;;5.85;57.65;103756.47;4964673;28;118667;-69
2023/01/24 06:02:44;;;;;;;18.50;9.82;;;;;;;5.86;57.45;103758.28;4976648;28;123750;-69
2023/01/24 06:05:12;;;;;;;19.25;10.13;;;;;;;5.84;57.26;103759.97;4979050;28;125063;-69
2023/01/24 06:07:39;;;;;;;20.23;10.52;;;;;;;5.84;57.57;103765.25;4982061;28;121116;-69
2023/01/24 06:10:06;;;;;;;18.40;10.23;;;;;;;5.84;57.38;103759.97;4948236;28;120696;-69
2023/01/24 06:12:45;;;;;;;19.65;10.63;;;;;;;5.83;57.49;103753.81;4965275;28;124907;-68
2023/01/24 06:15:13;;;;;;;20.13;10.48;;;;;;;5.85;57.80;103761.75;4948726;28;124649;-69
2023/01/24 06:17:40;;;;;;;19.20;10.35;;;;;;;5.85;57.54;103767.00;4967980;28;118217;-69
2023/01/24 06:20:11;;;;;;;19.45;10.63;;;;;;;5.84;57.65;103766.13;4961989;28;118847;-69
2023/01/24 06:22:51;;;;;;;20.50;11.15;;;;;;;5.84;57.90;103765.25;4985289;28;124411;-69
2023/01/24 06:25:24;;;;;;;20.67;10.90;;;;;;;5.85;57.57;103764.38;4972883;28;124640;-69
2023/01/24 06:27:51;;;;;;;19.83;11.25;;;;;;;5.84;57.65;103766.13;4968036;28;119769;-68
2023/01/24 06:30:19;;;;;;;19.00;10.40;;;;;;;5.82;57.41;103772.19;4982383;28;118695;-69
2023/01/24 06:33:05;;;;;;;20.02;10.90;;;;;;;5.78;57.64;103776.50;4960628;28;123614;-69
2023/01/24 06:35:55;;;;;;;21.95;10.85;;;;;;;5.77;57.87;103768.59;4980883;28;123391;-68
2023/01/24 06:38:24;;;;;;;20.25;10.35;;;;;;;5.76;57.55;103777.31;4959148;28;120157;-69
2023/01/24 06:40:55;;;;;;;20.42;11.02;;;;;;;5.76;57.92;103777.31;4966375;28;118135;-68
2023/01/24 06:43:23;;;;;;;20.88;12.07;;;;;;;5.76;57.92;103782.56;4961455;28;125269;-69
2023/01/24 06:45:50;;;;;;;21.88;12.60;;;;;;;5.74;57.91;103779.91;4980351;28;122795;-69
2023/01/24 06:48:18;;;;;;;23.10;13.25;;;;;;;5.72;57.61;103771.09;4964263;28;120486;-68
2023/01/24 06:50:46;;;;;;;20.80;12.00;;;;;;;5.71;57.57;103778.94;4974063;28;118971;-69
2023/01/24 06:53:14;;;;;;;23.88;11.90;;;;;;;5.68;57.52;103778.91;4956357;28;124582;-72
2023/01/24 06:55:45;;;;;;;20.33;10.77;;;;;;;5.66;57.90;103787.63;4947859;28;124656;-68
2023/01/24 06:58:13;;;;;;;23.08;11.88;;;;;;;5.66;57.62;103781.47;4961221;28;121078;-68
2023/01/24 07:00:40;;;;;;;19.48;10.43;;;;;;;5.66;57.63;103782.38;4967287;28;119860;-69
2023/01/24 07:03:07;;;;;;;20.38;10.43;;;;;;;5.69;57.61;103783.28;4966124;28;124251;-68
2023/01/24 07:05:36;;;;;;;20.35;11.48;;;;;;;5.70;57.79;103787.69;4965970;28;123610;-69
2023/01/24 07:08:04;;;;;;;21.70;10.95;;;;;;;5.70;57.91;103792.97;4961618;28;119783;-68
2023/01/24 07:10:32;;;;;;;21.08;11.57;;;;;;;5.70;57.77;103799.09;4957545;28;119107;-69
2023/01/24 07:12:59;;;;;;;23.60;11.80;;;;;;;5.70;58.00;103798.22;4975636;28;124505;-69
2023/01/24 07:15:26;;;;;;;24.45;11.40;;;;;;;5.69;57.72;103801.69;4978968;28;123991;-69
2023/01/24 07:17:54;;;;;;;22.73;12.20;;;;;;;5.68;57.60;103794.66;4965006;28;120155;-69
2023/01/24 07:20:21;;;;;;;24.70;13.85;;;;;;;5.66;57.65;103800.78;4961767;28;119504;-69
2023/01/24 07:22:48;;;;;;;25.02;13.00;;;;;;;5.63;57.75;103808.59;4964244;28;123787;-69
2023/01/24 07:25:19;;;;;;;23.30;11.88;;;;;;;5.60;57.61;103813.78;4976004;28;123067;-68
2023/01/24 07:27:47;;;;;;;23.00;12.27;;;;;;;5.60;57.73;103816.41;4961247;28;119576;-69
2023/01/24 07:30:15;;;;;;;22.98;11.95;;;;;;;5.57;57.97;103821.59;4963267;28;119339;-68
2023/01/24 07:32:42;;;;;;;25.33;12.85;;;;;;;5.58;57.72;103815.50;4962230;28;123735;-71
2023/01/24 07:35:09;;;;;;;25.02;13.27;;;;;;;5.58;58.05;103825.13;4963395;28;124275;-68
2023/01/24 07:37:37;;;;;;;23.92;12.02;;;;;;;5.58;57.83;103826.00;4978230;28;118239;-68
2023/01/24 07:40:05;;;;;;;26.90;12.32;;;;;;;5.58;58.04;103830.38;4964819;28;119928;-69
2023/01/24 07:42:32;;;;;;;21.23;11.82;;;;;;;5.56;57.91;103827.72;4950713;28;123523;-68
2023/01/24 07:44:59;;;;;;;17.48;11.75;;;;;;;5.56;58.02;103834.72;4970861;28;123669;-68
2023/01/24 07:47:26;;;;;;;18.20;11.07;;;;;;;5.57;58.21;103829.47;4970008;28;120402;-69
2023/01/24 07:49:53;;;;;;;18.45;10.20;;;;;;;5.59;58.19;103838.28;4970893;28;120814;-69
2023/01/24 07:52:20;;;;;;;24.05;12.73;;;;;;;5.59;57.88;103832.13;4965690;28;123522;-69
2023/01/24 07:54:47;;;;;;;21.20;11.52;;;;;;;5.60;57.88;103839.19;4981964;28;124620;-69
2023/01/24 07:57:16;;;;;;;23.30;12.23;;;;;;;5.58;57.82;103841.78;4975640;28;121267;-69
2023/01/24 07:59:43;;;;;;;19.38;10.85;;;;;;;5.56;57.80;103832.97;4958761;28;119444;-69
2023/01/24 08:02:11;;;;;;;23.75;12.10;;;;;;;5.55;57.84;103841.69;4986631;28;124570;-68
2023/01/24 08:04:38;;;;;;;23.77;11.63;;;;;;;5.53;57.77;103843.41;4965670;28;124283;-69
2023/01/24 08:07:18;;;;;;;22.92;11.07;;;;;;;5.54;57.81;103849.53;4955014;28;119776;-68
2023/01/24 08:09:46;;;;;;;18.73;10.90;;;;;;;5.52;58.05;103846.91;4980928;28;119173;-68
2023/01/24 08:12:14;;;;;;;20.63;11.52;;;;;;;5.51;57.75;103850.34;4957095;28;123950;-68
2023/01/24 08:14:41;;;;;;;22.42;11.57;;;;;;;5.50;57.97;103848.59;4966059;28;123621;-68
2023/01/24 08:17:11;;;;;;;17.88;10.70;;;;;;;5.50;57.78;103847.69;4972418;28;118649;-69
2023/01/24 08:19:39;;;;;;;18.27;10.10;;;;;;;5.51;58.16;103853.00;4975312;28;120628;-69
2023/01/24 08:22:25;;;;;;;20.75;11.35;;;;;;;5.52;57.83;103846.91;4971191;28;123876;-69
2023/01/24 08:24:52;;;;;;;20.17;11.30;;;;;;;5.52;57.79;103848.59;4970356;28;124151;-68
2023/01/24 08:27:19;;;;;;;21.02;10.45;;;;;;;5.50;57.80;103853.84;4984772;28;119184;-69
2023/01/24 08:29:46;;;;;;;21.10;11.02;;;;;;;5.51;57.95;103855.63;4970651;28;119288;-68
2023/01/24 08:32:13;;;;;;;20.67;9.68;;;;;;;5.53;57.86;103859.16;4970362;28;124062;-68
2023/01/24 08:34:40;;;;;;;18.10;10.65;;;;;;;5.54;58.03;103853.06;4962694;28;123823;-69
2023/01/24 08:37:07;;;;;;;18.45;9.38;;;;;;;5.57;57.91;103854.88;4974440;28;119810;-68
2023/01/24 08:39:34;;;;;;;18.35;9.35;;;;;;;5.60;58.35;103861.09;4971610;28;120832;-69
2023/01/24 08:42:01;;;;;;;18.90;9.90;;;;;;;5.63;57.96;103855.94;4971453;28;124464;-69
2023/01/24 08:44:29;;;;;;;18.08;10.13;;;;;;;5.69;57.89;103862.16;4969916;28;124614;-68
2023/01/24 08:46:56;;;;;;;20.73;10.30;;;;;;;5.70;58.18;103867.47;4969908;28;119651;-68
2023/01/24 08:49:23;;;;;;;16.77;9.68;;;;;;;5.71;57.89;103869.25;4962359;28;118755;-68
2023/01/24 08:51:58;;;;;;;19.27;9.38;;;;;;;5.74;58.13;103865.81;4952653;28;124415;-69
2023/01/24 08:54:27;;;;;;;16.63;8.63;;;;;;;5.74;57.87;103871.94;4967087;28;124157;-69
2023/01/24 08:56:55;;;;;;;15.70;8.93;;;;;;;5.75;57.82;103870.22;4968072;28;119055;-69
2023/01/24 08:59:22;;;;;;;17.20;9.25;;;;;;;5.77;57.70;103879.03;4967756;28;118928;-69
2023/01/24 09:01:49;;;;;;;13.93;8.02;;;;;;;5.77;57.63;103873.78;4966940;28;124279;-69
2023/01/24 09:04:16;;;;;;;17.55;8.85;;;;;;;5.78;57.76;103875.53;4951873;28;124535;-69
2023/01/24 09:06:43;;;;;;;15.13;7.93;;;;;;;5.77;57.86;103868.53;4975584;28;118433;-69
2023/01/24 09:09:10;;;;;;;16.05;9.23;;;;;;;5.80;57.74;103873.84;4955773;28;119195;-69
2023/01/24 09:11:37;;;;;;;16.52;9.73;;;;;;;5.81;57.35;103878.25;4967538;28;124326;-68
2023/01/24 09:14:04;;;;;;;15.50;8.82;;;;;;;5.77;57.32;103879.03;4954823;28;124591;-68
2023/01/24 09:16:31;;;;;;;15.15;8.38;;;;;;;5.75;57.71;103872.84;4960015;28;120144;-68
2023/01/24 09:18:59;;;;;;;12.45;8.23;;;;;;;5.74;57.64;103878.97;4962609;28;118441;-69
2023/01/24 09:21:26;;;;;;;13.63;7.95;;;;;;;5.74;57.35;103889.47;4967545;28;124358;-69
2023/01/24 09:23:54;;;;;;;14.88;8.02;;;;;;;5.76;57.83;103887.78;4967094;28;125152;-69
2023/01/24 09:26:22;;;;;;;18.63;9.00;;;;;;;5.78;57.66;103888.69;4965607;28;120468;-69
2023/01/24 09:28:49;;;;;;;14.57;8.60;;;;;;;5.81;57.39;103880.88;4968303;28;119895;-68
2023/01/24 09:31:16;;;;;;;17.25;8.30;;;;;;;5.84;57.65;103888.84;4955435;28;123907;-68
2023/01/24 09:33:44;;;;;;;17.40;9.18;;;;;;;5.87;57.26;103885.41;4966725;28;125448;-68
2023/01/24 09:36:25;;;;;;;18.17;8.45;;;;;;;5.87;57.46;103881.03;4967750;28;120456;-69
2023/01/24 09:38:52;;;;;;;15.70;8.60;;;;;;;5.91;57.46;103888.13;4967895;28;119077;-69
2023/01/24 09:41:53;;;;;;;16.52;8.77;;;;;;;5.91;57.60;103888.13;4965127;28;123947;-69
2023/01/24 09:44:44;;;;;;;15.32;8.80;;;;;;;5.93;56.99;103886.41;4965172;28;124537;-68
2023/01/24 09:47:22;;;;;;;16.07;9.60;;;;;;;5.89;57.10;103884.56;4966551;28;120450;-69
2023/01/24 09:50:00;;;;;;;15.00;8.60;;;;;;;5.85;57.06;103882.72;4965073;28;118489;-69
2023/01/24 09:52:39;;;;;;;16.98;9.32;;;;;;;5.83;56.93;103894.97;4965804;28;124117;-69
2023/01/24 09:55:09;;;;;;;14.98;9.40;;;;;;;5.79;56.87;103893.13;4965139;28;123468;-68
2023/01/24 09:57:51;;;;;;;18.17;9.70;;;;;;;5.76;56.80;103898.28;4966489;28;120692;-68
2023/01/24 10:00:30;;;;;;;15.98;9.48;;;;;;;5.71;57.18;103905.16;4965155;28;121357;-68
2023/01/24 10:02:59;;;;;;;14.27;7.53;;;;;;;5.70;57.34;103898.16;4964009;28;124623;-68
2023/01/24 10:05:38;;;;;;;15.05;7.35;;;;;;;5.71;57.32;103899.91;4954732;28;123762;-68
2023/01/24 10:08:12;;;;;;;15.57;8.65;;;;;;;5.75;57.41;103899.16;4965301;28;118974;-68
2023/01/24 10:10:56;;;;;;;14.52;8.02;;;;;;;5.79;57.47;103898.38;4965080;28;118159;-68
2023/01/24 10:13:43;;;;;;;14.80;7.97;;;;;;;5.84;57.41;103902.00;4946066;28;124297;-68
2023/01/24 10:16:27;;;;;;;13.88;7.78;;;;;;;5.88;57.25;103906.50;4960790;28;124000;-68
2023/01/24 10:18:57;;;;;;;15.00;7.72;;;;;;;5.93;57.20;103901.31;4949556;28;119392;-70
2023/01/24 10:21:55;;;;;;;14.82;7.75;;;;;;;5.95;57.54;103900.56;4963654;28;120492;-68
2023/01/24 10:24:27;;;;;;;14.70;8.05;;;;;;;5.97;57.21;103904.13;4962593;28;126423;-68
2023/01/24 10:26:55;;;;;;;13.15;7.65;;;;;;;5.99;57.41;103907.66;4952593;28;123778;-68
2023/01/24 10:29:26;;;;;;;15.20;8.80;;;;;;;6.01;57.09;103900.69;4962723;28;118972;-68
2023/01/24 10:32:05;;;;;;;17.27;8.80;;;;;;;6.03;57.29;103904.25;4955782;28;119723;-68
2023/01/24 10:34:44;;;;;;;17.73;9.00;;;;;;;6.02;56.69;103901.56;4981993;28;123077;-68
2023/01/24 10:37:19;;;;;;;18.40;8.40;;;;;;;5.97;56.70;103898.84;4963377;28;123040;-68
2023/01/24 10:39:46;;;;;;;11.63;7.20;;;;;;;5.93;56.52;103903.94;4951802;28;119518;-68
2023/01/24 10:42:25;;;;;;;11.50;6.75;;;;;;;5.90;56.92;103902.16;4955037;28;119541;-68
2023/01/24 10:44:57;;;;;;;12.77;6.55;;;;;;;5.92;56.73;103899.56;4936416;28;124965;-68
2023/01/24 10:47:39;;;;;;;15.13;7.20;;;;;;;5.94;57.07;103901.38;4949439;28;126762;-68
2023/01/24 10:50:10;;;;;;;12.18;7.38;;;;;;;5.99;57.06;103901.50;4975165;28;120136;-68
2023/01/24 10:52:37;;;;;;;14.38;7.07;;;;;;;6.02;56.92;103894.56;4961124;28;120100;-68
2023/01/24 10:55:36;;;;;;;12.07;7.10;;;;;;;6.04;57.13;103895.47;4965524;28;124016;-68
2023/01/24 10:58:24;;;;;;;10.20;7.07;;;;;;;6.09;56.70;103892.09;4961488;28;123787;-68
2023/01/24 11:00:58;;;;;;;15.75;7.63;;;;;;;6.09;56.61;103892.09;4950167;28;118920;-68
2023/01/24 11:03:30;;;;;;;12.43;6.95;;;;;;;6.10;56.74;103888.59;4965650;28;119195;-68
2023/01/24 11:05:57;;;;;;;11.63;6.30;;;;;;;6.13;56.79;103893.94;4962314;28;124901;-68
2023/01/24 11:08:31;;;;;;;13.88;6.88;;;;;;;6.16;56.88;103880.81;4965283;28;124884;-68
2023/01/24 11:10:59;;;;;;;11.02;7.15;;;;;;;6.18;56.89;103882.66;4948824;28;119753;-68
2023/01/24 11:13:37;;;;;;;11.73;6.78;;;;;;;6.22;56.55;103881.00;4965978;28;119081;-68
2023/01/24 11:16:22;;;;;;;16.38;7.00;;;;;;;6.24;56.64;103881.91;4962125;28;123732;-68
2023/01/24 11:18:58;;;;;;;13.98;7.47;;;;;;;6.26;56.60;103880.19;4965206;28;124972;-69
2023/01/24 11:21:27;;;;;;;11.43;6.78;;;;;;;6.29;57.00;103884.63;4985674;28;118655;-68
2023/01/24 11:24:04;;;;;;;14.40;7.15;;;;;;;6.30;56.60;103876.78;4968935;28;119082;-68
2023/01/24 11:26:36;;;;;;;12.13;6.72;;;;;;;6.32;56.28;103875.06;4954384;28;123995;-68
2023/01/24 11:29:15;;;;;;;12.90;6.82;;;;;;;6.34;56.57;103878.59;4967483;28;125404;-68
2023/01/24 11:31:46;;;;;;;10.93;6.30;;;;;;;6.35;56.70;103869.88;4965558;28;121569;-67
2023/01/24 11:34:59;;;;;;;15.75;7.43;;;;;;;6.36;56.71;103866.38;4962592;28;119028;-68
2023/01/24 11:37:45;;;;;;;14.82;6.85;;;;;;;6.38;56.33;103859.38;4945214;28;123904;-68
2023/01/24 11:40:21;;;;;;;;;;;;;;;6.36;56.55;103853.19;4964501;28;124586;-68
2023/01/24 11:43:01;;;;;;;10.15;6.43;;;;;;;6.36;56.59;103850.56;4969859;28;119316;-68
2023/01/24 11:45:58;;;;;;;14.15;8.00;;;;;;;6.37;56.22;103856.75;4976344;28;118980;-68
2023/01/24 11:48:37;;;;;;;12.48;6.78;;;;;;;6.33;56.47;103850.53;4982821;28;122940;-68
2023/01/24 11:51:18;;;;;;;11.65;6.82;;;;;;;6.34;56.68;103852.28;4952040;28;124249;-68
2023/01/24 11:54:18;;;;;;;11.52;6.22;;;;;;;6.38;56.74;103847.97;4951097;28;119672;-68
2023/01/24 11:57:02;;;;;;;10.88;6.22;;;;;;;6.41;56.72;103843.66;4929504;28;118886;-68
2023/01/24 11:59:38;;;;;;;11.30;6.78;;;;;;;6.45;56.71;103838.47;4946525;28;124656;-68
2023/01/24 12:02:38;;;;;;;11.77;6.68;;;;;;;6.46;56.59;103840.22;4948685;28;123820;-68
2023/01/24 12:05:34;;;;;;;15.95;7.50;;;;;;;6.45;56.37;103833.22;4967591;28;120738;-68
2023/01/24 12:08:11;;;;;;;13.97;7.57;;;;;;;6.43;56.57;103831.41;4952068;28;119868;-68
2023/01/24 12:11:21;;;;;;;15.45;7.30;;;;;;;6.46;56.49;103824.44;4938870;28;123377;-68
2023/01/24 12:14:28;;;;;;;15.95;7.93;;;;;;;6.46;56.17;103821.81;4888488;28;124526;-68